Profile

Join date: Jul 5, 2022

About


Cheap car rentals at Rokiškio aerodromas



Best car hire Rokiškio aerodromas:


Beat the crowds and make the most of your city break in Rokiškis by renting a car. It's as easy as reserving online, stepping off the plane, and driving off. You'll have to go through passport control and show the nice people at the car hire desk your driving licence too,. Need a Rokiškis Car Hire? Find Cheap Car Hire in Rokiškis & Car Rental Deals, backed by our ebookers.com Price Guarantee. Why delay? Book today! Check out our awesome deals on Budget car rentals in Rokiškis.


Whether you're looking for a minivan, luxury car, or SUV rental Wotif has you covered. We've hand picked the best deals on Budget car hire in Rokiškis to save you heaps of cash!


Locations in Rokiškis



Zarasai District Municipal Kupiškis District Municipal South Asia


Where can I rent a car at Rokiškio aerodromas?



METAR EVGA 201120Z 32003KT 280V090 9999 SCT033 18/08 Q1008 NOSIG. The wind is from direction 320° with a speed of 3 kt. Visibility is 6¼ mi or more. No ceiling has been observed. The temperature and wind chill are 64 °F. METAR EYPA 231020Z AUTO 22008KT 180V250 9999 ///// 15/13 Q1004. The wind is from direction southwest with a speed of 8 kt. Visibility is 6¼ mi or more. No ceiling has been observed.. Rokiškio aerodromas . Nereta Airstrip (21 mi) Kupiškio aerodromas (26 mi) Zasas. Looking for car rentals in Reykjavik? Search prices for Europcar, FLIZZR, GREEN MOTION , Ice Rental Cars, PROCAR and Thrifty. Latest prices: Economy $102/day. Economy $112/day. Compact $107/day. Compact $149/day. Intermediate $176/day. SUV $213/day. Search and find Reykjavik rental car deals on KAYAK now.

Павел Пиллигрини

More actions